createdAt,value
2019-06-27T00:00:43.096Z,0
2019-06-27T00:01:44.490Z,0
2019-06-27T00:02:45.897Z,0
2019-06-27T00:03:47.310Z,0
2019-06-27T00:04:48.707Z,0
2019-06-27T00:05:50.120Z,0
2019-06-27T00:06:51.525Z,0
2019-06-27T00:07:52.930Z,0
2019-06-27T00:08:54.326Z,0
2019-06-27T00:09:55.721Z,0
2019-06-27T00:10:57.117Z,0
2019-06-27T00:11:58.522Z,0
2019-06-27T00:12:59.885Z,0
2019-06-27T00:14:01.308Z,0
2019-06-27T00:15:02.706Z,0
2019-06-27T00:16:04.102Z,0
2019-06-27T00:17:05.502Z,0
2019-06-27T00:18:06.903Z,0
2019-06-27T00:19:08.296Z,0
2019-06-27T00:20:09.695Z,0
2019-06-27T00:21:11.103Z,0
2019-06-27T00:22:12.518Z,0
2019-06-27T00:23:13.887Z,0
2019-06-27T00:24:15.295Z,0
2019-06-27T00:25:16.815Z,0
2019-06-27T00:26:18.181Z,0
2019-06-27T00:27:19.579Z,0
2019-06-27T00:28:20.997Z,0
2019-06-27T00:29:22.400Z,0
2019-06-27T00:30:23.810Z,0
2019-06-27T00:31:25.211Z,0
2019-06-27T00:32:26.625Z,0
2019-06-27T00:33:28.018Z,0
2019-06-27T00:34:29.414Z,0
2019-06-27T00:35:30.806Z,0
2019-06-27T00:36:32.204Z,0
2019-06-27T00:37:33.608Z,0
2019-06-27T00:38:35.009Z,0
2019-06-27T00:39:36.430Z,0
2019-06-27T00:40:37.836Z,0
2019-06-27T00:41:39.227Z,0
2019-06-27T00:42:40.649Z,0
2019-06-27T00:43:42.028Z,0
2019-06-27T00:44:43.430Z,0
2019-06-27T00:45:44.832Z,0
2019-06-27T00:46:46.238Z,0
2019-06-27T00:47:47.627Z,0
2019-06-27T00:48:49.025Z,0
2019-06-27T00:49:50.435Z,0
2019-06-27T00:50:51.850Z,0
2019-06-27T00:51:53.262Z,0
2019-06-27T00:52:54.642Z,0
2019-06-27T00:53:56.047Z,0
2019-06-27T00:54:57.442Z,0
2019-06-27T00:55:58.848Z,0
2019-06-27T00:57:12.811Z,0
2019-06-27T00:58:01.599Z,0
2019-06-27T00:59:02.999Z,0
2019-06-27T01:00:04.410Z,0
2019-06-27T01:01:06.878Z,0
2019-06-27T01:02:08.286Z,0
2019-06-27T01:03:09.687Z,0
2019-06-27T01:04:11.098Z,0
2019-06-27T01:05:12.474Z,0
2019-06-27T01:06:13.871Z,0
2019-06-27T01:07:15.278Z,0
2019-06-27T01:08:16.686Z,0
2019-06-27T01:09:18.100Z,0
2019-06-27T01:10:19.501Z,0
2019-06-27T01:11:20.910Z,0
2019-06-27T01:12:22.309Z,0
2019-06-27T01:13:23.710Z,0
2019-06-27T01:14:25.136Z,0
2019-06-27T01:15:26.535Z,0
2019-06-27T01:16:27.945Z,0
2019-06-27T01:17:29.354Z,0
2019-06-27T01:18:30.740Z,0
2019-06-27T01:19:32.131Z,0
2019-06-27T01:20:33.537Z,0
2019-06-27T01:21:34.945Z,0
2019-06-27T01:22:36.339Z,0
2019-06-27T01:23:37.740Z,0
2019-06-27T01:24:39.150Z,0
2019-06-27T01:25:40.539Z,0
2019-06-27T01:26:41.934Z,0
2019-06-27T01:27:43.335Z,0
2019-06-27T01:28:44.739Z,0
2019-06-27T01:29:46.147Z,0
2019-06-27T01:30:47.536Z,0
2019-06-27T01:31:48.940Z,0
2019-06-27T01:32:50.338Z,0
2019-06-27T01:33:51.731Z,0
2019-06-27T01:34:53.136Z,0
2019-06-27T01:35:54.542Z,0
2019-06-27T01:36:55.938Z,0
2019-06-27T01:37:57.328Z,0
2019-06-27T01:38:58.730Z,0
2019-06-27T01:40:00.133Z,0
2019-06-27T01:41:01.521Z,0
2019-06-27T01:42:02.923Z,0
2019-06-27T01:43:04.330Z,0
2019-06-27T01:44:05.731Z,0
2019-06-27T01:45:07.134Z,0
2019-06-27T01:46:08.524Z,0
2019-06-27T01:47:09.925Z,0
2019-06-27T01:48:11.326Z,0
2019-06-27T01:49:12.722Z,0
2019-06-27T01:50:14.127Z,0
2019-06-27T01:51:15.517Z,0
2019-06-27T01:52:16.916Z,0
2019-06-27T01:53:18.327Z,0
2019-06-27T01:54:19.725Z,0
2019-06-27T01:55:21.121Z,0
2019-06-27T01:56:22.529Z,0
2019-06-27T01:57:23.919Z,0
2019-06-27T01:58:25.319Z,0
2019-06-27T01:59:26.717Z,0
2019-06-27T02:00:28.120Z,0
2019-06-27T02:01:29.513Z,0
2019-06-27T02:02:30.908Z,0
2019-06-27T02:03:32.314Z,4
2019-06-27T02:04:33.721Z,4
2019-06-27T02:05:35.130Z,4
2019-06-27T02:06:36.525Z,4
2019-06-27T02:07:37.938Z,4
2019-06-27T02:08:39.316Z,0
2019-06-27T02:09:40.722Z,4
2019-06-27T02:10:42.117Z,4
2019-06-27T02:11:43.506Z,4
2019-06-27T02:12:44.910Z,4
2019-06-27T02:13:46.313Z,4
2019-06-27T02:14:47.718Z,4
2019-06-27T02:15:49.119Z,4
2019-06-27T02:16:50.539Z,8
2019-06-27T02:17:51.937Z,8
2019-06-27T02:18:53.337Z,8
2019-06-27T02:19:54.748Z,12
2019-06-27T02:20:56.150Z,12
2019-06-27T02:21:57.549Z,12
2019-06-27T02:22:59.048Z,12
2019-06-27T02:24:00.335Z,16
2019-06-27T02:25:01.735Z,20
2019-06-27T02:26:03.145Z,20
2019-06-27T02:27:04.546Z,20
2019-06-27T02:28:05.937Z,24
2019-06-27T02:29:07.339Z,24
2019-06-27T02:30:08.736Z,28
2019-06-27T02:31:10.142Z,28
2019-06-27T02:32:11.541Z,36
2019-06-27T02:33:12.928Z,40
2019-06-27T02:34:14.331Z,44
2019-06-27T02:35:15.741Z,48
2019-06-27T02:36:17.144Z,52
2019-06-27T02:37:18.544Z,56
2019-06-27T02:38:19.932Z,64
2019-06-27T02:39:21.342Z,72
2019-06-27T02:40:22.750Z,76
2019-06-27T02:41:24.135Z,80
2019-06-27T02:42:25.542Z,92
2019-06-27T02:43:26.938Z,96
2019-06-27T02:44:28.334Z,104
2019-06-27T02:45:29.735Z,112
2019-06-27T02:46:31.133Z,120
2019-06-27T02:47:32.538Z,128
2019-06-27T02:48:33.922Z,140
2019-06-27T02:49:35.329Z,152
2019-06-27T02:50:36.737Z,160
2019-06-27T02:51:38.132Z,164
2019-06-27T02:52:39.527Z,180
2019-06-27T02:53:40.919Z,192
2019-06-27T02:54:42.323Z,204
2019-06-27T02:55:43.820Z,208
2019-06-27T02:56:45.103Z,220
2019-06-27T02:57:46.508Z,236
2019-06-27T02:58:47.910Z,248
2019-06-27T02:59:49.301Z,256
2019-06-27T03:00:50.703Z,272
2019-06-27T03:01:52.105Z,280
2019-06-27T03:02:53.514Z,292
2019-06-27T03:03:54.928Z,308
2019-06-27T03:04:56.330Z,324
2019-06-27T03:05:57.728Z,336
2019-06-27T03:06:59.132Z,352
2019-06-27T03:08:00.540Z,364
2019-06-27T03:09:01.948Z,380
2019-06-27T03:10:03.344Z,392
2019-06-27T03:11:04.747Z,412
2019-06-27T03:12:06.145Z,428
2019-06-27T03:13:07.541Z,444
2019-06-27T03:14:08.936Z,460
2019-06-27T03:15:10.371Z,480
2019-06-27T03:16:11.733Z,488
2019-06-27T03:17:13.128Z,508
2019-06-27T03:18:14.524Z,532
2019-06-27T03:19:15.929Z,648
2019-06-27T03:20:17.332Z,684
2019-06-27T03:21:18.729Z,744
2019-06-27T03:22:20.114Z,760
2019-06-27T03:23:21.522Z,760
2019-06-27T03:24:22.930Z,752
2019-06-27T03:25:24.332Z,828
2019-06-27T03:26:25.730Z,744
2019-06-27T03:27:27.131Z,796
2019-06-27T03:28:45.139Z,980
2019-06-27T03:29:29.903Z,876
2019-06-27T03:30:31.301Z,764
2019-06-27T03:31:32.711Z,932
2019-06-27T03:32:34.151Z,1104
2019-06-27T03:33:35.545Z,840
2019-06-27T03:34:36.951Z,1068
2019-06-27T03:35:38.355Z,1236
2019-06-27T03:36:39.742Z,1336
2019-06-27T03:37:41.154Z,1228
2019-06-27T03:38:42.547Z,1324
2019-06-27T03:39:43.943Z,1256
2019-06-27T03:40:45.356Z,1228
2019-06-27T03:41:46.772Z,1600
2019-06-27T03:42:48.161Z,1632
2019-06-27T03:43:49.552Z,1660
2019-06-27T03:44:50.945Z,1784
2019-06-27T03:45:52.349Z,1876
2019-06-27T03:46:53.751Z,1052
2019-06-27T03:47:55.155Z,2020
2019-06-27T03:48:56.559Z,1416
2019-06-27T03:49:57.985Z,2068
2019-06-27T03:50:59.366Z,1904
2019-06-27T03:52:00.771Z,1064
2019-06-27T03:53:02.171Z,1072
2019-06-27T03:54:03.570Z,1112
2019-06-27T03:55:04.968Z,1224
2019-06-27T03:56:06.377Z,1332
2019-06-27T03:57:07.779Z,1352
2019-06-27T03:58:09.167Z,1260
2019-06-27T03:59:12.974Z,1356
2019-06-27T04:00:11.952Z,1544
2019-06-27T04:01:13.332Z,1452
2019-06-27T04:02:14.729Z,3220
2019-06-27T04:03:16.128Z,1896
2019-06-27T04:04:17.529Z,2996
2019-06-27T04:05:18.922Z,1800
2019-06-27T04:06:20.338Z,2720
2019-06-27T04:07:21.726Z,2412
2019-06-27T04:08:23.133Z,3304
2019-06-27T04:09:24.534Z,3368
2019-06-27T04:10:25.931Z,3348
2019-06-27T04:11:27.333Z,3468
2019-06-27T04:12:28.729Z,3916
2019-06-27T04:13:30.140Z,3148
2019-06-27T04:14:31.533Z,3764
2019-06-27T04:15:32.950Z,3744
2019-06-27T04:16:34.357Z,2968
2019-06-27T04:17:35.764Z,3584
2019-06-27T04:18:37.166Z,2952
2019-06-27T04:19:38.587Z,2696
2019-06-27T04:20:39.990Z,2100
2019-06-27T04:21:41.373Z,2544
2019-06-27T04:22:42.770Z,2332
2019-06-27T04:23:44.174Z,4624
2019-06-27T04:24:45.574Z,2640
2019-06-27T04:25:46.989Z,5156
2019-06-27T04:26:48.396Z,3072
2019-06-27T04:27:49.791Z,1992
2019-06-27T04:28:51.219Z,2340
2019-06-27T04:29:52.626Z,2808
2019-06-27T04:30:54.035Z,2256
2019-06-27T04:31:55.442Z,2448
2019-06-27T04:32:56.838Z,2380
2019-06-27T04:33:58.251Z,7732
2019-06-27T04:34:59.674Z,2676
2019-06-27T04:36:01.088Z,2868
2019-06-27T04:37:02.490Z,2344
2019-06-27T04:38:03.903Z,5380
2019-06-27T04:39:05.304Z,12208
2019-06-27T04:40:06.705Z,11948
2019-06-27T04:41:08.116Z,11104
2019-06-27T04:42:09.513Z,10632
2019-06-27T04:43:10.918Z,11632
2019-06-27T04:44:12.327Z,11148
2019-06-27T04:45:13.732Z,10508
2019-06-27T04:46:15.149Z,11832
2019-06-27T04:47:16.552Z,12136
2019-06-27T04:48:17.948Z,12896
2019-06-27T04:49:19.366Z,12992
2019-06-27T04:50:20.780Z,12448
2019-06-27T04:51:22.186Z,13216
2019-06-27T04:52:23.599Z,13120
2019-06-27T04:53:25.012Z,13216
2019-06-27T04:54:26.422Z,11852
2019-06-27T04:55:27.849Z,9648
2019-06-27T04:56:29.267Z,8384
2019-06-27T04:57:30.640Z,8024
2019-06-27T04:58:32.045Z,7852
2019-06-27T04:59:51.929Z,7748
2019-06-27T05:00:34.823Z,7740
2019-06-27T05:01:36.239Z,7924
2019-06-27T05:02:37.639Z,8052
2019-06-27T05:03:39.057Z,8128
2019-06-27T05:04:40.467Z,8216
2019-06-27T05:05:41.878Z,8328
2019-06-27T05:06:43.291Z,8564
2019-06-27T05:07:44.716Z,8684
2019-06-27T05:08:46.127Z,8632
2019-06-27T05:09:47.554Z,8512
2019-06-27T05:10:49.003Z,8528
2019-06-27T05:11:50.499Z,8884
2019-06-27T05:12:51.888Z,9516
2019-06-27T05:13:53.305Z,10120
2019-06-27T05:14:54.715Z,10516
2019-06-27T05:15:56.119Z,11540
2019-06-27T05:16:57.547Z,13200
2019-06-27T05:17:59.006Z,16704
2019-06-27T05:19:00.432Z,18464
2019-06-27T05:20:03.280Z,15680
2019-06-27T05:21:03.233Z,14240
2019-06-27T05:22:04.642Z,8684
2019-06-27T05:23:06.066Z,8788
2019-06-27T05:24:07.483Z,8348
2019-06-27T05:25:08.904Z,8308
2019-06-27T05:26:10.314Z,8660
2019-06-27T05:27:11.737Z,8660
2019-06-27T05:28:13.154Z,8848
2019-06-27T05:29:14.578Z,9000
2019-06-27T05:30:15.992Z,8484
2019-06-27T05:31:17.409Z,8348
2019-06-27T05:32:18.808Z,8444
2019-06-27T05:33:20.225Z,8172
2019-06-27T05:34:21.633Z,7956
2019-06-27T05:35:23.044Z,8756
2019-06-27T05:36:24.481Z,9612
2019-06-27T05:37:25.865Z,6188
2019-06-27T05:38:27.281Z,9896
2019-06-27T05:39:28.698Z,10948
2019-06-27T05:40:30.128Z,15328
2019-06-27T05:41:31.525Z,23744
2019-06-27T05:42:33.066Z,28000
2019-06-27T05:43:34.299Z,25664
2019-06-27T05:44:35.707Z,27648
2019-06-27T05:45:37.116Z,29248
2019-06-27T05:46:38.535Z,28352
2019-06-27T05:47:39.940Z,25632
2019-06-27T05:48:41.335Z,4396
2019-06-27T05:49:42.746Z,4412
2019-06-27T05:50:44.160Z,9576
2019-06-27T05:51:45.582Z,6056
2019-06-27T05:52:46.986Z,5368
2019-06-27T05:53:48.384Z,5792
2019-06-27T05:54:49.794Z,5272
2019-06-27T05:55:51.212Z,30656
2019-06-27T05:56:52.629Z,32256
2019-06-27T05:57:54.086Z,32512
2019-06-27T05:58:55.484Z,33568
2019-06-27T05:59:56.901Z,36352
2019-06-27T06:00:58.332Z,11992
2019-06-27T06:01:59.741Z,35520
2019-06-27T06:03:01.144Z,37120
2019-06-27T06:04:02.569Z,36864
2019-06-27T06:05:03.999Z,15072
2019-06-27T06:06:05.426Z,34720
2019-06-27T06:07:06.828Z,8252
2019-06-27T06:08:08.245Z,37664
2019-06-27T06:09:09.675Z,36416
2019-06-27T06:10:11.092Z,40128
2019-06-27T06:11:12.522Z,41376
2019-06-27T06:12:13.945Z,41568
2019-06-27T06:13:15.369Z,41056
2019-06-27T06:14:16.799Z,43200
2019-06-27T06:15:18.259Z,43904
2019-06-27T06:16:19.659Z,44352
2019-06-27T06:17:21.096Z,44576
2019-06-27T06:18:22.503Z,45632
2019-06-27T06:19:23.923Z,46944
2019-06-27T06:20:25.362Z,37088
2019-06-27T06:21:26.803Z,48256
2019-06-27T06:22:28.246Z,8892
2019-06-27T06:23:29.662Z,44448
2019-06-27T06:24:31.104Z,11640
2019-06-27T06:25:32.540Z,7524
2019-06-27T06:26:33.963Z,6576
2019-06-27T06:27:35.408Z,9280
2019-06-27T06:28:36.833Z,13972
2019-06-27T06:29:38.267Z,10092
2019-06-27T06:30:44.598Z,52512
2019-06-27T06:31:41.061Z,14464
2019-06-27T06:32:42.481Z,11244
2019-06-27T06:33:43.891Z,53600
2019-06-27T06:34:45.314Z,56320
2019-06-27T06:35:46.736Z,33952
2019-06-27T06:36:48.151Z,21792
2019-06-27T06:37:49.567Z,10900
2019-06-27T06:38:50.985Z,59104
2019-06-27T06:39:52.386Z,12368
2019-06-27T06:40:53.810Z,11572
2019-06-27T06:41:55.230Z,18720
2019-06-27T06:43:00.166Z,15520
2019-06-27T06:43:58.081Z,7076
2019-06-27T06:44:59.569Z,58432
2019-06-27T06:46:00.967Z,32832
2019-06-27T06:47:02.386Z,60352
2019-06-27T06:48:03.815Z,7076
2019-06-27T06:49:05.224Z,7772
2019-06-27T06:50:06.630Z,5900
2019-06-27T06:51:08.050Z,5524
2019-06-27T06:52:09.456Z,13712
2019-06-27T06:53:10.865Z,13044
2019-06-27T06:54:12.291Z,9944
2019-06-27T06:55:13.706Z,61760
2019-06-27T06:56:15.131Z,62112
2019-06-27T06:57:16.588Z,65024
2019-06-27T06:58:18.028Z,65344
2019-06-27T06:59:19.439Z,47264
2019-06-27T07:00:20.845Z,64704
2019-06-27T07:01:22.253Z,65248
2019-06-27T07:02:23.667Z,62976
2019-06-27T07:03:25.081Z,62496
2019-06-27T07:04:26.497Z,65344
2019-06-27T07:05:27.915Z,64512
2019-06-27T07:06:29.345Z,60736
2019-06-27T07:07:30.770Z,24768
2019-06-27T07:08:32.181Z,49056
2019-06-27T07:09:33.610Z,55968
2019-06-27T07:10:35.026Z,54592
2019-06-27T07:11:36.446Z,54944
2019-06-27T07:12:37.903Z,56160
2019-06-27T07:13:39.244Z,66240
2019-06-27T07:14:40.668Z,70624
2019-06-27T07:15:42.082Z,72448
2019-06-27T07:16:43.548Z,69728
2019-06-27T07:17:44.885Z,55584
2019-06-27T07:18:46.303Z,59328
2019-06-27T07:19:47.731Z,56512
2019-06-27T07:20:49.149Z,57504
2019-06-27T07:21:50.570Z,62080
2019-06-27T07:22:51.996Z,66336
2019-06-27T07:23:53.421Z,65600
2019-06-27T07:24:54.838Z,63744
2019-06-27T07:25:56.259Z,65600
2019-06-27T07:26:57.680Z,67008
2019-06-27T07:27:59.121Z,70272
2019-06-27T07:29:00.548Z,68864
2019-06-27T07:30:02.046Z,71360
2019-06-27T07:31:16.870Z,72960
2019-06-27T07:32:04.837Z,14652
2019-06-27T07:33:09.310Z,11264
2019-06-27T07:34:07.645Z,7364
2019-06-27T07:35:09.061Z,14612
2019-06-27T07:36:10.489Z,51008
2019-06-27T07:37:11.914Z,38272
2019-06-27T07:38:13.350Z,18016
2019-06-27T07:39:14.767Z,59968
2019-06-27T07:40:16.183Z,10856
2019-06-27T07:41:17.621Z,13788
2019-06-27T07:42:19.042Z,65184
2019-06-27T07:43:20.460Z,13984
2019-06-27T07:44:21.885Z,67136
2019-06-27T07:45:23.300Z,59008
2019-06-27T07:46:25.812Z,58848
2019-06-27T07:47:26.102Z,66400
2019-06-27T07:48:27.526Z,68416
2019-06-27T07:49:28.944Z,64672
2019-06-27T07:50:30.356Z,59744
2019-06-27T07:51:31.780Z,56480
2019-06-27T07:52:33.200Z,58272
2019-06-27T07:53:34.626Z,60320
2019-06-27T07:54:36.080Z,64064
2019-06-27T07:55:37.484Z,66432
2019-06-27T07:56:38.915Z,23104
2019-06-27T07:57:40.357Z,54112
2019-06-27T07:58:41.771Z,63360
2019-06-27T07:59:43.185Z,26464
2019-06-27T08:00:44.639Z,14480
2019-06-27T08:01:46.007Z,65088
2019-06-27T08:02:47.445Z,65440
2019-06-27T08:03:48.877Z,68000
2019-06-27T08:04:50.300Z,66592
2019-06-27T08:05:51.733Z,59872
2019-06-27T08:06:53.231Z,57632
2019-06-27T08:07:54.646Z,58912
2019-06-27T08:08:56.069Z,61472
2019-06-27T08:09:57.482Z,24544
2019-06-27T08:10:58.907Z,12112
2019-06-27T08:12:00.359Z,8916
2019-06-27T08:13:01.786Z,18592
2019-06-27T08:14:03.230Z,64480
2019-06-27T08:15:04.660Z,66368
2019-06-27T08:16:06.097Z,36832
2019-06-27T08:17:07.520Z,17024
2019-06-27T08:18:08.940Z,8664
2019-06-27T08:19:10.368Z,67616
2019-06-27T08:20:11.786Z,57600
2019-06-27T08:21:13.203Z,69888
2019-06-27T08:22:14.625Z,72064
2019-06-27T08:23:16.045Z,72864
2019-06-27T08:24:17.471Z,68320
2019-06-27T08:25:18.893Z,74144
2019-06-27T08:26:20.309Z,76192
2019-06-27T08:27:21.728Z,79648
2019-06-27T08:28:23.164Z,68128
2019-06-27T08:29:24.597Z,26560
2019-06-27T08:30:26.024Z,26368
2019-06-27T08:31:27.480Z,79168
2019-06-27T08:32:28.903Z,26368
2019-06-27T08:33:30.325Z,16448
2019-06-27T08:34:31.747Z,39200
2019-06-27T08:35:33.736Z,80960
2019-06-27T08:36:34.555Z,84384
2019-06-27T08:37:35.993Z,91008
2019-06-27T08:38:37.409Z,93056
2019-06-27T08:39:38.827Z,91936
2019-06-27T08:40:40.246Z,87904
2019-06-27T08:41:41.685Z,83840
2019-06-27T08:42:43.109Z,81248
2019-06-27T08:43:44.532Z,87328
2019-06-27T08:44:45.970Z,11628
2019-06-27T08:45:47.383Z,10500
2019-06-27T08:46:48.825Z,10396
2019-06-27T08:47:50.213Z,10184
2019-06-27T08:48:51.632Z,7552
2019-06-27T08:49:53.055Z,9784
2019-06-27T08:50:54.471Z,72416
2019-06-27T08:51:55.890Z,81984
2019-06-27T08:53:00.353Z,74080
2019-06-27T08:53:58.731Z,73856
2019-06-27T08:55:00.156Z,86112
2019-06-27T08:56:01.621Z,88288
2019-06-27T08:57:02.994Z,76416
2019-06-27T08:58:04.420Z,68832
2019-06-27T08:59:05.847Z,26880
2019-06-27T09:00:07.267Z,44864
2019-06-27T09:01:08.695Z,54176
2019-06-27T09:02:10.121Z,66688
2019-06-27T09:03:11.575Z,69600
2019-06-27T09:04:12.989Z,68448
2019-06-27T09:05:14.410Z,60640
2019-06-27T09:06:15.843Z,18400
2019-06-27T09:07:17.264Z,68640
2019-06-27T09:08:18.703Z,39296
2019-06-27T09:09:20.145Z,64064
2019-06-27T09:10:21.562Z,23136
2019-06-27T09:11:23.149Z,46880
2019-06-27T09:12:24.396Z,64256
2019-06-27T09:13:25.822Z,45408
2019-06-27T09:14:27.244Z,60704
2019-06-27T09:15:28.665Z,69376
2019-06-27T09:16:30.102Z,62112
2019-06-27T09:17:31.579Z,6660
2019-06-27T09:18:33.012Z,64320
2019-06-27T09:19:34.431Z,60448
2019-06-27T09:20:35.868Z,65312
2019-06-27T09:21:37.329Z,22368
2019-06-27T09:22:38.741Z,34976
2019-06-27T09:23:40.159Z,25408
2019-06-27T09:24:41.641Z,62752
2019-06-27T09:25:43.063Z,71424
2019-06-27T09:26:44.489Z,70432
2019-06-27T09:27:45.914Z,15100
2019-06-27T09:28:47.348Z,54816
2019-06-27T09:29:48.775Z,42080
2019-06-27T09:30:50.351Z,30080
2019-06-27T09:31:51.774Z,15744
2019-06-27T09:32:53.187Z,11028
2019-06-27T09:33:54.607Z,10724
2019-06-27T09:34:56.030Z,11556
2019-06-27T09:35:57.445Z,11784
2019-06-27T09:36:58.855Z,9808
2019-06-27T09:38:00.240Z,11292
2019-06-27T09:39:01.669Z,9212
2019-06-27T09:40:03.096Z,8896
2019-06-27T09:41:04.556Z,5288
2019-06-27T09:42:05.964Z,5176
2019-06-27T09:43:07.391Z,5124
2019-06-27T09:44:08.818Z,5268
2019-06-27T09:45:10.241Z,5220
2019-06-27T09:46:11.672Z,5340
2019-06-27T09:47:13.097Z,5396
2019-06-27T09:48:14.517Z,5164
2019-06-27T09:49:15.940Z,5052
2019-06-27T09:50:20.604Z,5108
2019-06-27T09:51:18.739Z,5140
2019-06-27T09:52:20.164Z,5844
2019-06-27T09:53:21.581Z,6564
2019-06-27T09:54:23.019Z,5896
2019-06-27T09:55:24.435Z,5244
2019-06-27T09:56:25.862Z,4884
2019-06-27T09:57:27.271Z,4860
2019-06-27T09:58:28.697Z,5528
2019-06-27T09:59:30.103Z,5128
2019-06-27T10:00:31.510Z,4964
2019-06-27T10:01:32.935Z,4924
2019-06-27T10:02:41.403Z,4796
2019-06-27T10:03:35.748Z,4736
2019-06-27T10:04:37.160Z,4784
2019-06-27T10:05:38.582Z,4740
2019-06-27T10:06:39.990Z,4864
2019-06-27T10:07:41.405Z,4848
2019-06-27T10:08:42.824Z,4860
2019-06-27T10:09:44.235Z,4788
2019-06-27T10:10:45.638Z,4612
2019-06-27T10:11:47.050Z,4584
2019-06-27T10:12:48.452Z,4476
2019-06-27T10:13:49.898Z,4528
2019-06-27T10:14:51.306Z,4468
2019-06-27T10:15:52.717Z,4480
2019-06-27T10:16:54.120Z,4480
2019-06-27T10:17:55.525Z,4400
2019-06-27T10:18:56.931Z,4488
2019-06-27T10:19:58.380Z,4360
2019-06-27T10:20:59.748Z,4296
2019-06-27T10:22:01.219Z,4292
2019-06-27T10:23:02.521Z,4388
2019-06-27T10:24:03.938Z,4520
2019-06-27T10:25:05.408Z,4564
2019-06-27T10:26:06.817Z,4436
2019-06-27T10:27:08.246Z,4384
2019-06-27T10:28:09.659Z,4204
2019-06-27T10:29:11.073Z,4172
2019-06-27T10:30:12.479Z,4156
2019-06-27T10:31:13.891Z,4136
2019-06-27T10:32:15.308Z,4164
2019-06-27T10:33:16.743Z,4060
2019-06-27T10:34:18.361Z,4000
2019-06-27T10:35:19.586Z,3976
2019-06-27T10:36:21.010Z,3972
2019-06-27T10:37:22.426Z,3968
2019-06-27T10:38:23.827Z,3940
2019-06-27T10:39:25.224Z,3968
2019-06-27T10:40:26.638Z,3992
2019-06-27T10:41:28.075Z,3980
2019-06-27T10:42:29.487Z,4084
2019-06-27T10:43:30.928Z,4108
2019-06-27T10:44:32.349Z,4152
2019-06-27T10:45:33.760Z,4068
2019-06-27T10:46:35.161Z,4104
2019-06-27T10:47:36.596Z,4304
2019-06-27T10:48:38.008Z,4416
2019-06-27T10:49:39.421Z,4236
2019-06-27T10:50:40.828Z,4092
2019-06-27T10:51:42.243Z,4012
2019-06-27T10:52:43.661Z,3988
2019-06-27T10:53:45.082Z,4044
2019-06-27T10:54:46.499Z,4020
2019-06-27T10:55:47.919Z,4072
2019-06-27T10:56:49.358Z,4224
2019-06-27T10:57:50.799Z,4148
2019-06-27T10:58:52.196Z,4200
2019-06-27T10:59:53.619Z,4076
2019-06-27T11:00:55.030Z,4100
2019-06-27T11:01:56.434Z,4464
2019-06-27T11:03:11.114Z,4140
2019-06-27T11:03:59.235Z,4168
2019-06-27T11:05:00.667Z,4980
2019-06-27T11:06:02.073Z,4964
2019-06-27T11:07:03.572Z,4276
2019-06-27T11:08:04.882Z,4880
2019-06-27T11:09:06.291Z,4388
2019-06-27T11:10:07.690Z,4212
2019-06-27T11:11:09.163Z,4136
2019-06-27T11:12:10.573Z,4152
2019-06-27T11:13:11.984Z,4220
2019-06-27T11:14:13.400Z,4212
2019-06-27T11:15:14.815Z,4264
2019-06-27T11:16:16.233Z,4348
2019-06-27T11:17:17.654Z,5236
2019-06-27T11:18:21.271Z,5704
2019-06-27T11:19:20.421Z,4780
2019-06-27T11:20:21.835Z,4528
2019-06-27T11:21:23.235Z,4456
2019-06-27T11:22:24.655Z,6772
2019-06-27T11:23:26.111Z,8100
2019-06-27T11:24:27.518Z,9228
2019-06-27T11:25:28.924Z,9296
2019-06-27T11:26:30.344Z,9164
2019-06-27T11:27:31.767Z,9920
2019-06-27T11:28:33.188Z,11012
2019-06-27T11:29:34.610Z,11072
2019-06-27T11:30:36.032Z,10660
2019-06-27T11:31:37.440Z,11556
2019-06-27T11:32:38.879Z,10768
2019-06-27T11:33:40.293Z,11284
2019-06-27T11:34:41.699Z,11000
2019-06-27T11:35:43.116Z,8012
2019-06-27T11:36:46.568Z,10452
2019-06-27T11:37:45.896Z,12276
2019-06-27T11:38:47.315Z,11492
2019-06-27T11:39:48.731Z,10472
2019-06-27T11:40:50.170Z,22144
2019-06-27T11:41:51.590Z,57760
2019-06-27T11:42:52.999Z,92512
2019-06-27T11:43:54.424Z,105280
2019-06-27T11:44:55.856Z,100896
2019-06-27T11:45:57.312Z,102176
2019-06-27T11:46:58.717Z,104544
2019-06-27T11:48:00.131Z,108768
2019-06-27T11:49:01.547Z,108352
2019-06-27T11:50:03.021Z,105120
2019-06-27T11:51:04.335Z,100128
2019-06-27T11:52:05.759Z,88992
2019-06-27T11:53:07.179Z,91840
2019-06-27T11:54:08.630Z,94848
2019-06-27T11:55:10.037Z,101568
2019-06-27T11:56:11.497Z,100192
2019-06-27T11:57:12.920Z,94016
2019-06-27T11:58:14.356Z,91552
2019-06-27T11:59:15.764Z,100256
2019-06-27T12:00:17.184Z,110912
2019-06-27T12:01:18.591Z,109600
2019-06-27T12:02:20.024Z,102080
2019-06-27T12:03:21.463Z,101504
2019-06-27T12:04:22.878Z,108992
2019-06-27T12:05:24.300Z,113408
2019-06-27T12:06:25.723Z,111712
2019-06-27T12:07:27.123Z,106688
2019-06-27T12:08:28.556Z,103616
2019-06-27T12:09:29.999Z,102368
2019-06-27T12:10:31.419Z,45792
2019-06-27T12:11:32.862Z,51360
2019-06-27T12:12:34.300Z,113216
2019-06-27T12:13:35.802Z,117888
2019-06-27T12:14:37.205Z,116896
2019-06-27T12:15:38.661Z,117696
2019-06-27T12:16:40.110Z,118784
2019-06-27T12:17:41.507Z,52768
2019-06-27T12:18:42.911Z,7624
2019-06-27T12:19:44.322Z,95648
2019-06-27T12:20:45.751Z,51520
2019-06-27T12:21:47.165Z,52608
2019-06-27T12:22:48.571Z,100000
2019-06-27T12:23:49.999Z,111104
2019-06-27T12:24:51.413Z,116544
2019-06-27T12:25:52.841Z,115360
2019-06-27T12:26:54.268Z,115296
2019-06-27T12:27:55.695Z,112544
2019-06-27T12:28:57.102Z,112544
2019-06-27T12:29:58.522Z,115648
2019-06-27T12:30:59.934Z,117568
2019-06-27T12:32:01.396Z,78368
2019-06-27T12:33:02.765Z,117216
2019-06-27T12:34:07.285Z,112480
2019-06-27T12:35:05.585Z,117888
2019-06-27T12:36:07.016Z,120928
2019-06-27T12:37:08.434Z,123456
2019-06-27T12:38:09.842Z,115936
2019-06-27T12:39:11.256Z,109728
2019-06-27T12:40:13.186Z,88160
2019-06-27T12:41:14.596Z,32544
2019-06-27T12:42:28.345Z,5840
2019-06-27T12:43:17.405Z,4680
2019-06-27T12:44:18.827Z,5084
2019-06-27T12:45:20.241Z,6448
2019-06-27T12:46:21.655Z,8852
2019-06-27T12:47:23.066Z,6144
2019-06-27T12:48:24.491Z,5524
2019-06-27T12:49:44.469Z,4756
2019-06-27T12:50:27.283Z,3936
2019-06-27T12:51:28.705Z,6340
2019-06-27T12:52:30.114Z,4800
2019-06-27T12:53:31.526Z,3960
2019-06-27T12:54:32.949Z,6524
2019-06-27T12:55:34.360Z,4672
2019-06-27T12:56:35.779Z,4960
2019-06-27T12:57:37.185Z,4048
2019-06-27T12:58:38.614Z,4176
2019-06-27T12:59:40.014Z,6596
2019-06-27T13:00:41.427Z,5528
2019-06-27T13:01:42.830Z,7324
2019-06-27T13:02:44.236Z,5568
2019-06-27T13:03:45.649Z,4932
2019-06-27T13:04:47.072Z,4076
2019-06-27T13:05:48.501Z,5404
2019-06-27T13:06:49.854Z,5728
2019-06-27T13:07:51.259Z,4996
2019-06-27T13:08:52.685Z,4084
2019-06-27T13:09:54.107Z,4944
2019-06-27T13:10:55.513Z,6148
2019-06-27T13:11:56.945Z,6324
2019-06-27T13:12:58.383Z,6536
2019-06-27T13:13:59.793Z,5804
2019-06-27T13:15:01.205Z,5956
2019-06-27T13:16:02.783Z,7132
2019-06-27T13:17:04.183Z,5244
2019-06-27T13:18:05.588Z,4268
2019-06-27T13:19:07.034Z,4628
2019-06-27T13:20:08.496Z,5976
2019-06-27T13:21:09.943Z,5436
2019-06-27T13:22:11.318Z,5400
2019-06-27T13:23:12.722Z,5572
2019-06-27T13:24:14.139Z,5196
2019-06-27T13:25:15.548Z,5324
2019-06-27T13:26:16.955Z,4832
2019-06-27T13:27:18.365Z,5184
2019-06-27T13:28:19.847Z,4984
2019-06-27T13:29:21.238Z,5212
2019-06-27T13:30:22.628Z,4824
2019-06-27T13:31:24.058Z,4452
2019-06-27T13:32:25.657Z,3752
2019-06-27T13:33:26.846Z,3112
2019-06-27T13:34:39.820Z,3480
2019-06-27T13:35:29.644Z,3728
2019-06-27T13:36:33.092Z,4272
2019-06-27T13:37:32.416Z,4328
2019-06-27T13:38:33.847Z,4836
2019-06-27T13:39:35.258Z,4128
2019-06-27T13:40:36.669Z,4460
2019-06-27T13:41:38.079Z,4236
2019-06-27T13:42:39.498Z,3864